sensor_id;sensor_type;location;lat;lon;timestamp;pressure;altitude;pressure_sealevel;temperature;humidity
48882;BME280;57063;51.406;-2.402;2023-02-15T00:01:35;101444.31;;;1.87;100.00
48882;BME280;57063;51.406;-2.402;2023-02-15T00:04:01;101415.56;;;1.68;100.00
48882;BME280;57063;51.406;-2.402;2023-02-15T00:06:27;101397.81;;;1.51;100.00
48882;BME280;57063;51.406;-2.402;2023-02-15T00:08:53;101414.69;;;1.72;100.00
48882;BME280;57063;51.406;-2.402;2023-02-15T00:11:19;101416.44;;;1.62;100.00
48882;BME280;57063;51.406;-2.402;2023-02-15T00:14:24;101426.59;;;1.61;100.00
48882;BME280;57063;51.406;-2.402;2023-02-15T00:16:51;101418.22;;;1.46;100.00
48882;BME280;57063;51.406;-2.402;2023-02-15T00:19:18;101414.78;;;1.55;100.00
48882;BME280;57063;51.406;-2.402;2023-02-15T00:21:46;101418.16;;;1.57;100.00
48882;BME280;57063;51.406;-2.402;2023-02-15T00:24:14;101390.16;;;1.60;100.00
48882;BME280;57063;51.406;-2.402;2023-02-15T00:26:41;101377.50;;;1.48;100.00
48882;BME280;57063;51.406;-2.402;2023-02-15T00:29:08;101410.47;;;1.63;100.00
48882;BME280;57063;51.406;-2.402;2023-02-15T00:31:35;101383.41;;;1.48;100.00
48882;BME280;57063;51.406;-2.402;2023-02-15T00:34:12;101385.97;;;1.50;100.00
48882;BME280;57063;51.406;-2.402;2023-02-15T00:36:38;101397.84;;;1.48;100.00
48882;BME280;57063;51.406;-2.402;2023-02-15T00:39:04;101394.34;;;1.67;100.00
48882;BME280;57063;51.406;-2.402;2023-02-15T00:41:31;101380.88;;;1.56;100.00
48882;BME280;57063;51.406;-2.402;2023-02-15T00:43:57;101384.19;;;1.69;100.00
48882;BME280;57063;51.406;-2.402;2023-02-15T00:46:23;101367.19;;;1.69;100.00
48882;BME280;57063;51.406;-2.402;2023-02-15T00:48:48;101393.41;;;1.88;100.00
48882;BME280;57063;51.406;-2.402;2023-02-15T00:51:14;101415.47;;;1.88;100.00
48882;BME280;57063;51.406;-2.402;2023-02-15T00:53:40;101396.72;;;1.95;100.00
48882;BME280;57063;51.406;-2.402;2023-02-15T00:56:06;101380.63;;;1.90;100.00
48882;BME280;57063;51.406;-2.402;2023-02-15T00:58:31;101414.44;;;2.13;100.00
48882;BME280;57063;51.406;-2.402;2023-02-15T01:01:03;101402.66;;;2.00;100.00
48882;BME280;57063;51.406;-2.402;2023-02-15T01:03:30;101374.75;;;1.82;100.00
48882;BME280;57063;51.406;-2.402;2023-02-15T01:05:56;101379.00;;;1.80;100.00
48882;BME280;57063;51.406;-2.402;2023-02-15T01:08:21;101384.19;;;1.67;100.00
48882;BME280;57063;51.406;-2.402;2023-02-15T01:10:47;101387.50;;;1.79;100.00
48882;BME280;57063;51.406;-2.402;2023-02-15T01:13:14;101393.50;;;1.71;100.00
48882;BME280;57063;51.406;-2.402;2023-02-15T01:15:40;101402.69;;;1.94;100.00
48882;BME280;57063;51.406;-2.402;2023-02-15T01:18:06;101379.84;;;1.88;100.00
48882;BME280;57063;51.406;-2.402;2023-02-15T01:20:35;101403.34;;;2.21;100.00
48882;BME280;57063;51.406;-2.402;2023-02-15T01:23:05;101383.03;;;2.11;100.00
48882;BME280;57063;51.406;-2.402;2023-02-15T01:25:33;101369.56;;;1.97;100.00
48882;BME280;57063;51.406;-2.402;2023-02-15T01:27:59;101369.59;;;1.96;100.00
48882;BME280;57063;51.406;-2.402;2023-02-15T01:30:25;101333.28;;;1.67;100.00
48882;BME280;57063;51.406;-2.402;2023-02-15T01:32:51;101352.72;;;1.79;100.00
48882;BME280;57063;51.406;-2.402;2023-02-15T01:35:17;101354.41;;;1.80;100.00
48882;BME280;57063;51.406;-2.402;2023-02-15T01:37:42;101329.03;;;1.71;100.00
48882;BME280;57063;51.406;-2.402;2023-02-15T01:40:13;101353.50;;;1.89;100.00
48882;BME280;57063;51.406;-2.402;2023-02-15T01:42:39;101336.69;;;1.66;100.00
48882;BME280;57063;51.406;-2.402;2023-02-15T01:45:29;101368.75;;;1.93;100.00
48882;BME280;57063;51.406;-2.402;2023-02-15T01:50:50;101323.16;;;1.58;100.00
48882;BME280;57063;51.406;-2.402;2023-02-15T01:55:50;101359.50;;;1.77;100.00
48882;BME280;57063;51.406;-2.402;2023-02-15T01:58:18;101340.97;;;1.60;100.00
48882;BME280;57063;51.406;-2.402;2023-02-15T02:00:44;101340.84;;;1.81;100.00
48882;BME280;57063;51.406;-2.402;2023-02-15T02:03:10;101338.25;;;1.83;100.00
48882;BME280;57063;51.406;-2.402;2023-02-15T02:05:37;101311.25;;;1.63;100.00
48882;BME280;57063;51.406;-2.402;2023-02-15T02:08:04;101314.56;;;1.75;100.00
48882;BME280;57063;51.406;-2.402;2023-02-15T02:10:30;101339.03;;;1.94;100.00
48882;BME280;57063;51.406;-2.402;2023-02-15T02:12:58;101330.53;;;1.97;100.00
48882;BME280;57063;51.406;-2.402;2023-02-15T02:15:58;101335.56;;;2.06;100.00
48882;BME280;57063;51.406;-2.402;2023-02-15T02:24:21;101332.16;;;2.10;100.00
48882;BME280;57063;51.406;-2.402;2023-02-15T02:30:24;101325.31;;;2.12;100.00
48882;BME280;57063;51.406;-2.402;2023-02-15T02:35:59;101304.28;;;1.93;100.00
48882;BME280;57063;51.406;-2.402;2023-02-15T02:38:36;101314.44;;;1.93;100.00
48882;BME280;57063;51.406;-2.402;2023-02-15T02:41:17;101280.66;;;1.74;100.00
48882;BME280;57063;51.406;-2.402;2023-02-15T02:48:39;101269.81;;;1.46;100.00
48882;BME280;57063;51.406;-2.402;2023-02-15T02:51:05;101259.69;;;1.38;100.00
48882;BME280;57063;51.406;-2.402;2023-02-15T02:53:32;101288.53;;;1.37;100.00
48882;BME280;57063;51.406;-2.402;2023-02-15T02:56:20;101288.56;;;1.33;100.00
48882;BME280;57063;51.406;-2.402;2023-02-15T02:58:56;101296.25;;;1.20;100.00
48882;BME280;57063;51.406;-2.402;2023-02-15T03:04:29;101268.31;;;1.13;100.00
48882;BME280;57063;51.406;-2.402;2023-02-15T03:06:59;101242.16;;;0.91;100.00
48882;BME280;57063;51.406;-2.402;2023-02-15T03:09:29;101274.31;;;1.01;100.00
48882;BME280;57063;51.406;-2.402;2023-02-15T03:12:16;101278.53;;;1.05;100.00
48882;BME280;57063;51.406;-2.402;2023-02-15T03:14:44;101240.47;;;0.85;100.00
48882;BME280;57063;51.406;-2.402;2023-02-15T03:17:13;101235.41;;;0.83;100.00
48882;BME280;57063;51.406;-2.402;2023-02-15T03:19:40;101262.41;;;1.06;100.00
48882;BME280;57063;51.406;-2.402;2023-02-15T03:22:17;101242.97;;;0.94;100.00
48882;BME280;57063;51.406;-2.402;2023-02-15T03:24:54;101242.00;;;1.18;100.00
48882;BME280;57063;51.406;-2.402;2023-02-15T03:27:24;101197.94;;;1.16;100.00
48882;BME280;57063;51.406;-2.402;2023-02-15T03:29:58;101206.44;;;1.12;100.00
48882;BME280;57063;51.406;-2.402;2023-02-15T03:32:27;101196.34;;;1.03;100.00
48882;BME280;57063;51.406;-2.402;2023-02-15T03:34:54;101231.81;;;1.24;100.00
48882;BME280;57063;51.406;-2.402;2023-02-15T03:39:56;101225.06;;;1.17;100.00
48882;BME280;57063;51.406;-2.402;2023-02-15T03:42:45;101188.72;;;1.01;100.00
48882;BME280;57063;51.406;-2.402;2023-02-15T03:45:17;101224.22;;;1.18;100.00
48882;BME280;57063;51.406;-2.402;2023-02-15T03:47:46;101181.16;;;0.89;100.00
48882;BME280;57063;51.406;-2.402;2023-02-15T03:50:21;101192.19;;;0.85;100.00
48882;BME280;57063;51.406;-2.402;2023-02-15T03:53:10;101176.97;;;0.82;100.00
48882;BME280;57063;51.406;-2.402;2023-02-15T03:55:38;101179.44;;;0.96;100.00
48882;BME280;57063;51.406;-2.402;2023-02-15T03:58:04;101189.59;;;0.96;100.00
48882;BME280;57063;51.406;-2.402;2023-02-15T04:00:59;101171.88;;;0.88;100.00
48882;BME280;57063;51.406;-2.402;2023-02-15T04:03:47;101171.81;;;0.94;100.00
48882;BME280;57063;51.406;-2.402;2023-02-15T04:06:15;101181.06;;;1.06;100.00
48882;BME280;57063;51.406;-2.402;2023-02-15T04:08:40;101156.63;;;0.87;100.00
48882;BME280;57063;51.406;-2.402;2023-02-15T04:11:24;101191.19;;;1.12;100.00
48882;BME280;57063;51.406;-2.402;2023-02-15T04:13:50;101167.50;;;1.07;100.00
48882;BME280;57063;51.406;-2.402;2023-02-15T04:16:22;101169.13;;;1.17;100.00
48882;BME280;57063;51.406;-2.402;2023-02-15T04:18:48;101152.31;;;0.98;100.00
48882;BME280;57063;51.406;-2.402;2023-02-15T04:21:32;101159.94;;;0.98;100.00
48882;BME280;57063;51.406;-2.402;2023-02-15T04:24:16;101162.41;;;1.07;100.00
48882;BME280;57063;51.406;-2.402;2023-02-15T04:27:01;101153.16;;;0.98;100.00
48882;BME280;57063;51.406;-2.402;2023-02-15T04:29:28;101159.09;;;0.96;100.00
48882;BME280;57063;51.406;-2.402;2023-02-15T04:31:55;101148.88;;;1.02;100.00
48882;BME280;57063;51.406;-2.402;2023-02-15T04:34:21;101155.66;;;1.06;100.00
48882;BME280;57063;51.406;-2.402;2023-02-15T04:36:47;101161.59;;;1.03;100.00
48882;BME280;57063;51.406;-2.402;2023-02-15T04:39:14;101153.88;;;1.14;100.00
48882;BME280;57063;51.406;-2.402;2023-02-15T04:41:40;101153.03;;;1.12;100.00
48882;BME280;57063;51.406;-2.402;2023-02-15T04:44:06;101164.84;;;1.24;100.00
48882;BME280;57063;51.406;-2.402;2023-02-15T04:46:34;101163.19;;;1.20;100.00
48882;BME280;57063;51.406;-2.402;2023-02-15T04:49:18;101145.47;;;1.06;100.00
48882;BME280;57063;51.406;-2.402;2023-02-15T04:51:44;101171.66;;;1.19;100.00
48882;BME280;57063;51.406;-2.402;2023-02-15T04:54:09;101163.16;;;1.23;100.00
48882;BME280;57063;51.406;-2.402;2023-02-15T04:56:35;101170.66;;;1.38;100.00
48882;BME280;57063;51.406;-2.402;2023-02-15T04:59:03;101177.50;;;1.35;100.00
48882;BME280;57063;51.406;-2.402;2023-02-15T05:01:29;101141.28;;;1.00;100.00
48882;BME280;57063;51.406;-2.402;2023-02-15T05:03:54;101119.19;;;1.07;100.00
48882;BME280;57063;51.406;-2.402;2023-02-15T05:06:20;101145.34;;;1.24;100.00
48882;BME280;57063;51.406;-2.402;2023-02-15T05:08:45;101120.84;;;1.16;100.00
48882;BME280;57063;51.406;-2.402;2023-02-15T05:11:11;101148.75;;;1.25;100.00
48882;BME280;57063;51.406;-2.402;2023-02-15T05:13:36;101179.16;;;1.36;100.00
48882;BME280;57063;51.406;-2.402;2023-02-15T05:16:02;101153.06;;;1.11;100.00
48882;BME280;57063;51.406;-2.402;2023-02-15T05:18:28;101161.41;;;1.26;100.00
48882;BME280;57063;51.406;-2.402;2023-02-15T05:20:53;101145.31;;;1.27;100.00
48882;BME280;57063;51.406;-2.402;2023-02-15T05:23:19;101153.03;;;1.17;100.00
48882;BME280;57063;51.406;-2.402;2023-02-15T05:25:48;101153.78;;;1.28;100.00
48882;BME280;57063;51.406;-2.402;2023-02-15T05:28:33;101145.44;;;1.09;100.00
48882;BME280;57063;51.406;-2.402;2023-02-15T05:31:06;101157.25;;;1.18;100.00
48882;BME280;57063;51.406;-2.402;2023-02-15T05:33:32;101149.69;;;1.10;100.00
48882;BME280;57063;51.406;-2.402;2023-02-15T05:35:58;101157.41;;;0.98;100.00
48882;BME280;57063;51.406;-2.402;2023-02-15T05:38:24;101174.31;;;1.02;100.00
48882;BME280;57063;51.406;-2.402;2023-02-15T05:40:51;101124.53;;;0.69;100.00
48882;BME280;57063;51.406;-2.402;2023-02-15T05:43:17;101154.06;;;0.87;100.00
48882;BME280;57063;51.406;-2.402;2023-02-15T05:45:50;101134.69;;;0.67;100.00
48882;BME280;57063;51.406;-2.402;2023-02-15T05:48:17;101154.16;;;0.73;100.00
48882;BME280;57063;51.406;-2.402;2023-02-15T05:50:43;101127.16;;;0.50;100.00
48882;BME280;57063;51.406;-2.402;2023-02-15T05:53:09;101127.22;;;0.42;100.00
48882;BME280;57063;51.406;-2.402;2023-02-15T05:55:40;101141.53;;;0.56;100.00
48882;BME280;57063;51.406;-2.402;2023-02-15T05:58:07;101133.13;;;0.43;100.00
48882;BME280;57063;51.406;-2.402;2023-02-15T06:00:33;101165.91;;;0.91;100.00
48882;BME280;57063;51.406;-2.402;2023-02-15T06:03:14;101146.44;;;0.85;100.00
48882;BME280;57063;51.406;-2.402;2023-02-15T06:05:39;101143.03;;;0.88;100.00
48882;BME280;57063;51.406;-2.402;2023-02-15T06:08:05;101174.34;;;0.99;100.00
48882;BME280;57063;51.406;-2.402;2023-02-15T06:10:30;101146.34;;;1.03;100.00
48882;BME280;57063;51.406;-2.402;2023-02-15T06:12:56;101166.63;;;1.13;100.00
48882;BME280;57063;51.406;-2.402;2023-02-15T06:15:22;101132.94;;;0.81;100.00
48882;BME280;57063;51.406;-2.402;2023-02-15T06:17:47;101167.53;;;1.01;100.00
48882;BME280;57063;51.406;-2.402;2023-02-15T06:20:13;101170.91;;;1.00;100.00
48882;BME280;57063;51.406;-2.402;2023-02-15T06:22:38;101149.00;;;0.87;100.00
48882;BME280;57063;51.406;-2.402;2023-02-15T06:25:04;101144.00;;;0.68;100.00
48882;BME280;57063;51.406;-2.402;2023-02-15T06:27:30;101158.41;;;0.68;100.00
48882;BME280;57063;51.406;-2.402;2023-02-15T06:29:55;101182.81;;;0.98;100.00
48882;BME280;57063;51.406;-2.402;2023-02-15T06:32:21;101168.50;;;0.80;100.00
48882;BME280;57063;51.406;-2.402;2023-02-15T06:34:46;101167.69;;;0.75;100.00
48882;BME280;57063;51.406;-2.402;2023-02-15T06:37:13;101160.03;;;0.81;100.00
48882;BME280;57063;51.406;-2.402;2023-02-15T06:39:39;101135.41;;;0.91;100.00
48882;BME280;57063;51.406;-2.402;2023-02-15T06:42:05;101178.59;;;0.92;100.00
48882;BME280;57063;51.406;-2.402;2023-02-15T06:44:30;101147.41;;;0.67;100.00
48882;BME280;57063;51.406;-2.402;2023-02-15T06:46:56;101155.88;;;0.69;100.00
48882;BME280;57063;51.406;-2.402;2023-02-15T06:49:21;101162.59;;;0.76;100.00
48882;BME280;57063;51.406;-2.402;2023-02-15T06:51:47;101167.63;;;0.89;100.00
48882;BME280;57063;51.406;-2.402;2023-02-15T06:54:12;101147.34;;;0.75;100.00
48882;BME280;57063;51.406;-2.402;2023-02-15T06:56:38;101130.47;;;0.69;100.00
48882;BME280;57063;51.406;-2.402;2023-02-15T06:59:03;101143.81;;;1.02;100.00
48882;BME280;57063;51.406;-2.402;2023-02-15T07:01:29;101130.28;;;0.97;100.00
48882;BME280;57063;51.406;-2.402;2023-02-15T07:03:55;101134.41;;;1.15;100.00
48882;BME280;57063;51.406;-2.402;2023-02-15T07:06:20;101143.72;;;1.17;100.00
48882;BME280;57063;51.406;-2.402;2023-02-15T07:08:46;101165.59;;;1.37;100.00
48882;BME280;57063;51.406;-2.402;2023-02-15T07:11:12;101126.69;;;1.25;100.00
48882;BME280;57063;51.406;-2.402;2023-02-15T07:13:55;101158.84;;;1.34;100.00
48882;BME280;57063;51.406;-2.402;2023-02-15T07:16:22;101125.97;;;1.06;100.00
48882;BME280;57063;51.406;-2.402;2023-02-15T07:18:47;101142.06;;;1.07;100.00
48882;BME280;57063;51.406;-2.402;2023-02-15T07:21:13;101135.25;;;1.12;100.00
48882;BME280;57063;51.406;-2.402;2023-02-15T07:23:39;101159.78;;;1.21;100.00
48882;BME280;57063;51.406;-2.402;2023-02-15T07:26:05;101130.13;;;1.18;100.00
48882;BME280;57063;51.406;-2.402;2023-02-15T07:28:32;101136.09;;;1.17;100.00
48882;BME280;57063;51.406;-2.402;2023-02-15T07:31:01;101156.41;;;1.20;100.00
48882;BME280;57063;51.406;-2.402;2023-02-15T07:33:26;101137.72;;;1.21;100.00
48882;BME280;57063;51.406;-2.402;2023-02-15T07:35:57;101142.84;;;1.18;100.00
48882;BME280;57063;51.406;-2.402;2023-02-15T07:38:29;101168.91;;;1.45;100.00
48882;BME280;57063;51.406;-2.402;2023-02-15T07:41:03;101149.34;;;1.53;100.00
48882;BME280;57063;51.406;-2.402;2023-02-15T07:43:32;101167.03;;;1.68;100.00
48882;BME280;57063;51.406;-2.402;2023-02-15T07:46:03;101175.53;;;1.64;100.00
48882;BME280;57063;51.406;-2.402;2023-02-15T07:48:30;101165.13;;;1.89;100.00
48882;BME280;57063;51.406;-2.402;2023-02-15T07:51:03;101171.06;;;1.89;100.00
48882;BME280;57063;51.406;-2.402;2023-02-15T07:53:30;101152.44;;;1.84;100.00
48882;BME280;57063;51.406;-2.402;2023-02-15T07:56:00;101176.69;;;2.19;100.00
48882;BME280;57063;51.406;-2.402;2023-02-15T07:58:26;101155.38;;;2.26;100.00
48882;BME280;57063;51.406;-2.402;2023-02-15T08:01:13;101166.31;;;2.38;100.00
48882;BME280;57063;51.406;-2.402;2023-02-15T08:03:39;101171.16;;;2.57;100.00
48882;BME280;57063;51.406;-2.402;2023-02-15T08:06:04;101137.56;;;2.91;100.00
48882;BME280;57063;51.406;-2.402;2023-02-15T08:08:30;101179.66;;;3.20;100.00
48882;BME280;57063;51.406;-2.402;2023-02-15T08:11:07;101144.00;;;3.15;100.00
48882;BME280;57063;51.406;-2.402;2023-02-15T08:13:54;101178.31;;;3.49;100.00
48882;BME280;57063;51.406;-2.402;2023-02-15T08:16:24;101198.31;;;3.76;100.00
48882;BME280;57063;51.406;-2.402;2023-02-15T08:18:51;101172.34;;;4.01;100.00
48882;BME280;57063;51.406;-2.402;2023-02-15T08:21:17;101187.72;;;4.41;100.00
48882;BME280;57063;51.406;-2.402;2023-02-15T08:23:43;101161.47;;;4.75;100.00
48882;BME280;57063;51.406;-2.402;2023-02-15T08:26:08;101157.94;;;5.20;100.00
48882;BME280;57063;51.406;-2.402;2023-02-15T08:28:34;101162.66;;;5.71;100.00
48882;BME280;57063;51.406;-2.402;2023-02-15T08:31:07;101168.06;;;6.24;100.00
48882;BME280;57063;51.406;-2.402;2023-02-15T08:33:34;101148.63;;;6.76;100.00
48882;BME280;57063;51.406;-2.402;2023-02-15T08:36:14;101179.19;;;7.90;100.00
48882;BME280;57063;51.406;-2.402;2023-02-15T08:38:40;101151.63;;;8.43;100.00
48882;BME280;57063;51.406;-2.402;2023-02-15T08:41:29;101135.53;;;8.61;100.00
48882;BME280;57063;51.406;-2.402;2023-02-15T08:43:57;101179.38;;;8.80;100.00
48882;BME280;57063;51.406;-2.402;2023-02-15T08:46:25;101157.13;;;8.79;100.00
48882;BME280;57063;51.406;-2.402;2023-02-15T08:48:51;101143.28;;;8.60;100.00
48882;BME280;57063;51.406;-2.402;2023-02-15T08:51:22;101139.59;;;8.67;100.00
48882;BME280;57063;51.406;-2.402;2023-02-15T08:53:50;101143.31;;;9.24;99.99
48882;BME280;57063;51.406;-2.402;2023-02-15T08:56:18;101167.06;;;9.53;98.04
48882;BME280;57063;51.406;-2.402;2023-02-15T08:58:44;101154.91;;;9.77;96.44
48882;BME280;57063;51.406;-2.402;2023-02-15T09:01:15;101146.28;;;10.17;93.69
48882;BME280;57063;51.406;-2.402;2023-02-15T09:03:46;101137.56;;;9.60;92.48
48882;BME280;57063;51.406;-2.402;2023-02-15T09:06:12;101149.16;;;9.91;89.21
48882;BME280;57063;51.406;-2.402;2023-02-15T09:08:39;101136.00;;;9.76;89.14
48882;BME280;57063;51.406;-2.402;2023-02-15T09:11:21;101161.22;;;10.86;83.97
48882;BME280;57063;51.406;-2.402;2023-02-15T09:13:52;101128.00;;;10.79;82.40
48882;BME280;57063;51.406;-2.402;2023-02-15T09:16:19;101161.91;;;10.90;82.91
48882;BME280;57063;51.406;-2.402;2023-02-15T09:18:45;101162.13;;;11.22;81.94
48882;BME280;57063;51.406;-2.402;2023-02-15T09:21:16;101143.06;;;10.88;82.36
48882;BME280;57063;51.406;-2.402;2023-02-15T09:23:43;101137.22;;;10.27;85.43
48882;BME280;57063;51.406;-2.402;2023-02-15T09:26:11;101154.94;;;9.75;90.55
48882;BME280;57063;51.406;-2.402;2023-02-15T09:28:38;101126.09;;;9.47;91.21
48882;BME280;57063;51.406;-2.402;2023-02-15T09:33:59;101123.41;;;10.10;88.48
48882;BME280;57063;51.406;-2.402;2023-02-15T09:36:33;101115.63;;;13.47;70.88
48882;BME280;57063;51.406;-2.402;2023-02-15T09:39:17;101120.19;;;15.11;62.55
48882;BME280;57063;51.406;-2.402;2023-02-15T09:50:32;101155.84;;;19.13;46.06
48882;BME280;57063;51.406;-2.402;2023-02-15T09:55:53;101146.31;;;19.96;44.83
48882;BME280;57063;51.406;-2.402;2023-02-15T09:58:32;101167.78;;;20.21;44.11
48882;BME280;57063;51.406;-2.402;2023-02-15T10:02:08;101165.72;;;20.15;44.89
48882;BME280;57063;51.406;-2.402;2023-02-15T10:15:06;101141.47;;;23.41;38.53
48882;BME280;57063;51.406;-2.402;2023-02-15T10:17:55;101135.47;;;24.33;36.34
48882;BME280;57063;51.406;-2.402;2023-02-15T10:28:20;101144.53;;;25.14;34.90
48882;BME280;57063;51.406;-2.402;2023-02-15T10:30:50;101131.88;;;26.44;33.04
48882;BME280;57063;51.406;-2.402;2023-02-15T10:33:32;101130.63;;;22.82;38.36
48882;BME280;57063;51.406;-2.402;2023-02-15T10:55:26;101171.88;;;24.56;35.79
48882;BME280;57063;51.406;-2.402;2023-02-15T11:01:34;101182.22;;;26.36;32.79
48882;BME280;57063;51.406;-2.402;2023-02-15T11:06:22;101141.56;;;24.93;34.63
48882;BME280;57063;51.406;-2.402;2023-02-15T11:09:00;101164.47;;;26.45;32.79
48882;BME280;57063;51.406;-2.402;2023-02-15T11:11:38;101120.50;;;26.36;32.84
48882;BME280;57063;51.406;-2.402;2023-02-15T11:14:17;101113.22;;;26.07;33.14
48882;BME280;57063;51.406;-2.402;2023-02-15T11:16:50;101148.69;;;25.81;32.92
48882;BME280;57063;51.406;-2.402;2023-02-15T11:19:24;101145.94;;;24.01;36.43
48882;BME280;57063;51.406;-2.402;2023-02-15T11:22:11;101148.47;;;24.19;36.01
48882;BME280;57063;51.406;-2.402;2023-02-15T11:24:43;101130.63;;;24.47;35.96
48882;BME280;57063;51.406;-2.402;2023-02-15T11:29:41;101155.41;;;23.07;38.67
48882;BME280;57063;51.406;-2.402;2023-02-15T11:32:35;101145.06;;;22.60;39.78
48882;BME280;57063;51.406;-2.402;2023-02-15T11:35:20;101147.78;;;24.51;36.71
48882;BME280;57063;51.406;-2.402;2023-02-15T11:37:53;101157.75;;;25.23;35.41
48882;BME280;57063;51.406;-2.402;2023-02-15T11:42:47;101134.31;;;24.20;36.84
48882;BME280;57063;51.406;-2.402;2023-02-15T11:45:28;101168.75;;;23.14;38.28
48882;BME280;57063;51.406;-2.402;2023-02-15T11:47:55;101137.34;;;22.03;40.06
48882;BME280;57063;51.406;-2.402;2023-02-15T11:50:27;101143.81;;;21.71;40.77
48882;BME280;57063;51.406;-2.402;2023-02-15T11:52:58;101137.44;;;23.02;38.76
48882;BME280;57063;51.406;-2.402;2023-02-15T11:55:24;101141.69;;;24.08;37.01
48882;BME280;57063;51.406;-2.402;2023-02-15T12:00:32;101119.28;;;21.43;41.56
48882;BME280;57063;51.406;-2.402;2023-02-15T12:03:14;101138.56;;;21.71;41.13
48882;BME280;57063;51.406;-2.402;2023-02-15T12:05:45;101143.72;;;21.63;41.53
48882;BME280;57063;51.406;-2.402;2023-02-15T12:08:21;101120.88;;;20.87;43.09
48882;BME280;57063;51.406;-2.402;2023-02-15T12:11:07;101133.75;;;21.67;42.11
48882;BME280;57063;51.406;-2.402;2023-02-15T12:13:53;101098.66;;;20.12;44.00
48882;BME280;57063;51.406;-2.402;2023-02-15T12:16:20;101080.25;;;20.62;43.45
48882;BME280;57063;51.406;-2.402;2023-02-15T12:18:47;101117.34;;;19.67;45.35
48882;BME280;57063;51.406;-2.402;2023-02-15T12:21:30;101078.72;;;18.75;47.05
48882;BME280;57063;51.406;-2.402;2023-02-15T12:24:17;101114.06;;;19.44;46.16
48882;BME280;57063;51.406;-2.402;2023-02-15T12:26:44;101077.25;;;19.97;45.23
48882;BME280;57063;51.406;-2.402;2023-02-15T12:29:25;101106.31;;;20.54;43.37
48882;BME280;57063;51.406;-2.402;2023-02-15T12:31:52;101111.97;;;19.99;44.86
48882;BME280;57063;51.406;-2.402;2023-02-15T12:34:29;101076.13;;;19.90;44.91
48882;BME280;57063;51.406;-2.402;2023-02-15T12:36:59;101104.28;;;19.46;46.88
48882;BME280;57063;51.406;-2.402;2023-02-15T12:39:30;101082.16;;;19.81;46.16
48882;BME280;57063;51.406;-2.402;2023-02-15T12:44:32;101089.38;;;19.98;44.73
48882;BME280;57063;51.406;-2.402;2023-02-15T12:47:25;101084.53;;;17.23;51.21
48882;BME280;57063;51.406;-2.402;2023-02-15T12:50:12;101085.50;;;16.25;53.50
48882;BME280;57063;51.406;-2.402;2023-02-15T12:52:49;101101.63;;;15.43;57.44
48882;BME280;57063;51.406;-2.402;2023-02-15T12:55:26;101091.28;;;15.03;58.42
48882;BME280;57063;51.406;-2.402;2023-02-15T12:58:17;101101.97;;;14.44;60.63
48882;BME280;57063;51.406;-2.402;2023-02-15T13:00:44;101070.44;;;14.21;61.85
48882;BME280;57063;51.406;-2.402;2023-02-15T13:03:29;101057.88;;;14.15;62.29
48882;BME280;57063;51.406;-2.402;2023-02-15T13:05:56;101080.16;;;14.05;62.60
48882;BME280;57063;51.406;-2.402;2023-02-15T13:08:35;101067.28;;;13.75;63.88
48882;BME280;57063;51.406;-2.402;2023-02-15T13:11:08;101055.00;;;14.05;63.60
48882;BME280;57063;51.406;-2.402;2023-02-15T13:13:58;101056.03;;;14.44;63.10
48882;BME280;57063;51.406;-2.402;2023-02-15T13:16:30;101067.81;;;14.77;60.90
48882;BME280;57063;51.406;-2.402;2023-02-15T13:18:57;101060.81;;;15.69;58.10
48882;BME280;57063;51.406;-2.402;2023-02-15T13:21:32;101047.22;;;16.87;54.04
48882;BME280;57063;51.406;-2.402;2023-02-15T13:24:06;101038.72;;;16.72;54.16
48882;BME280;57063;51.406;-2.402;2023-02-15T13:26:34;101051.50;;;16.64;54.27
48882;BME280;57063;51.406;-2.402;2023-02-15T13:29:17;101037.03;;;16.36;54.30
48882;BME280;57063;51.406;-2.402;2023-02-15T13:31:44;101039.81;;;15.72;57.01
48882;BME280;57063;51.406;-2.402;2023-02-15T13:34:12;101030.66;;;15.53;57.56
48882;BME280;57063;51.406;-2.402;2023-02-15T13:40:15;101029.50;;;15.06;59.75
48882;BME280;57063;51.406;-2.402;2023-02-15T13:42:52;101013.50;;;14.05;62.19
48882;BME280;57063;51.406;-2.402;2023-02-15T13:59:42;101008.34;;;13.34;67.67
48882;BME280;57063;51.406;-2.402;2023-02-15T14:10:38;100999.41;;;12.64;72.55
48882;BME280;57063;51.406;-2.402;2023-02-15T14:21:13;100970.00;;;12.80;72.09
48882;BME280;57063;51.406;-2.402;2023-02-15T14:26:47;101014.25;;;12.77;73.67
48882;BME280;57063;51.406;-2.402;2023-02-15T14:32:31;100994.22;;;12.18;77.25
48882;BME280;57063;51.406;-2.402;2023-02-15T14:35:00;100995.56;;;12.10;78.04
48882;BME280;57063;51.406;-2.402;2023-02-15T14:40:15;100987.78;;;11.78;80.17
48882;BME280;57063;51.406;-2.402;2023-02-15T14:43:10;100977.50;;;11.76;81.81
48882;BME280;57063;51.406;-2.402;2023-02-15T14:45:55;100975.16;;;11.72;81.50
48882;BME280;57063;51.406;-2.402;2023-02-15T14:48:36;100985.50;;;11.72;82.34
48882;BME280;57063;51.406;-2.402;2023-02-15T14:51:04;100972.94;;;11.48;83.73
48882;BME280;57063;51.406;-2.402;2023-02-15T14:59:12;100984.38;;;11.44;85.90
48882;BME280;57063;51.406;-2.402;2023-02-15T15:01:39;101014.34;;;11.64;86.05
48882;BME280;57063;51.406;-2.402;2023-02-15T15:04:12;101013.25;;;11.52;86.91
48882;BME280;57063;51.406;-2.402;2023-02-15T15:06:41;100994.00;;;11.25;90.23
48882;BME280;57063;51.406;-2.402;2023-02-15T15:09:24;101025.81;;;11.43;93.37
48882;BME280;57063;51.406;-2.402;2023-02-15T15:11:53;101034.31;;;11.45;96.61
48882;BME280;57063;51.406;-2.402;2023-02-15T15:16:57;101033.13;;;11.00;100.00
48882;BME280;57063;51.406;-2.402;2023-02-15T15:22:21;100986.50;;;10.68;100.00
48882;BME280;57063;51.406;-2.402;2023-02-15T15:49:10;101050.47;;;9.48;100.00
48882;BME280;57063;51.406;-2.402;2023-02-15T15:51:40;101072.94;;;9.64;100.00
48882;BME280;57063;51.406;-2.402;2023-02-15T15:54:15;101035.03;;;9.27;100.00
48882;BME280;57063;51.406;-2.402;2023-02-15T15:56:44;101076.13;;;9.30;100.00